createdAt,value
2022-11-25T00:01:29.920Z,25.10
2022-11-25T00:03:37.850Z,25.10
2022-11-25T00:05:44.694Z,25.10
2022-11-25T00:07:51.823Z,25.10
2022-11-25T00:09:58.598Z,25.10
2022-11-25T00:12:07.161Z,25.10
2022-11-25T00:14:17.825Z,25.20
2022-11-25T00:16:27.342Z,25.20
2022-11-25T00:18:35.106Z,25.20
2022-11-25T00:20:41.981Z,25.20
2022-11-25T00:22:48.960Z,25.30
2022-11-25T00:24:55.780Z,25.30
2022-11-25T00:27:05.933Z,25.30
2022-11-25T00:29:16.854Z,25.30
2022-11-25T00:31:25.566Z,25.40
2022-11-25T00:33:32.392Z,25.40
2022-11-25T00:35:39.419Z,25.40
2022-11-25T00:37:46.143Z,25.40
2022-11-25T00:39:54.294Z,25.40
2022-11-25T00:42:17.823Z,25.40
2022-11-25T00:44:38.277Z,25.40
2022-11-25T00:46:46.397Z,25.50
2022-11-25T00:48:53.432Z,25.50
2022-11-25T00:51:00.089Z,25.50
2022-11-25T00:53:07.235Z,25.50
2022-11-25T00:55:14.007Z,25.50
2022-11-25T00:57:22.160Z,25.50
2022-11-25T00:59:31.542Z,25.50
2022-11-25T01:01:39.595Z,25.50
2022-11-25T01:03:46.264Z,25.50
2022-11-25T01:05:53.447Z,25.50
2022-11-25T01:08:00.476Z,25.50
2022-11-25T01:10:07.914Z,25.50
2022-11-25T01:12:14.740Z,25.50
2022-11-25T01:14:21.916Z,25.50
2022-11-25T01:16:32.959Z,25.40
2022-11-25T01:18:40.123Z,25.50
2022-11-25T01:20:47.404Z,25.40
2022-11-25T01:22:56.027Z,25.40
2022-11-25T01:25:03.148Z,25.50
2022-11-25T01:27:09.819Z,25.50
2022-11-25T01:29:18.904Z,25.50
2022-11-25T01:31:27.379Z,25.50
2022-11-25T01:33:36.791Z,25.50
2022-11-25T01:35:43.460Z,25.60
2022-11-25T01:37:50.641Z,25.60
2022-11-25T01:39:57.465Z,25.60
2022-11-25T01:42:04.905Z,25.60
2022-11-25T01:44:15.214Z,25.70
2022-11-25T01:46:28.432Z,25.70
2022-11-25T01:48:42.371Z,25.80
2022-11-25T01:50:51.552Z,25.90
2022-11-25T01:52:59.653Z,25.90
2022-11-25T01:55:12.674Z,26.00
2022-11-25T01:57:24.666Z,26.10
2022-11-25T01:59:35.944Z,26.10
2022-11-25T02:01:45.905Z,26.20
2022-11-25T02:03:57.835Z,26.20
2022-11-25T02:06:10.704Z,26.20
2022-11-25T02:08:19.058Z,26.20
2022-11-25T02:10:28.596Z,26.30
2022-11-25T02:12:37.317Z,26.30
2022-11-25T02:14:44.751Z,26.30
2022-11-25T02:16:51.761Z,26.30
2022-11-25T02:19:01.006Z,26.30
2022-11-25T02:21:08.239Z,26.30
2022-11-25T02:23:26.582Z,26.30
2022-11-25T02:25:38.323Z,26.30
2022-11-25T02:27:52.879Z,26.50
2022-11-25T02:30:00.578Z,26.70
2022-11-25T02:32:08.196Z,26.70
2022-11-25T02:34:14.881Z,26.70
2022-11-25T02:36:25.698Z,26.70
2022-11-25T02:38:39.231Z,26.70
2022-11-25T02:40:54.553Z,26.70
2022-11-25T02:43:03.833Z,26.70
2022-11-25T02:45:15.981Z,26.70
2022-11-25T02:47:22.701Z,26.60
2022-11-25T02:49:30.293Z,26.70
2022-11-25T02:51:37.013Z,26.70
2022-11-25T02:53:44.861Z,26.70
2022-11-25T02:55:53.682Z,26.80
2022-11-25T02:58:02.040Z,26.80
2022-11-25T03:00:10.195Z,26.90
2022-11-25T03:02:19.520Z,26.90
2022-11-25T03:04:26.606Z,26.90
2022-11-25T03:06:33.687Z,27.00
2022-11-25T03:08:41.021Z,27.00
2022-11-25T03:10:52.659Z,27.10
2022-11-25T03:12:59.891Z,27.10
2022-11-25T03:15:07.481Z,27.10
2022-11-25T03:17:14.818Z,27.10
2022-11-25T03:19:21.640Z,27.20
2022-11-25T03:21:31.844Z,27.20
2022-11-25T03:23:38.870Z,27.30
2022-11-25T03:25:46.000Z,27.30
2022-11-25T03:27:54.513Z,27.30
2022-11-25T03:30:01.489Z,27.30
2022-11-25T03:32:10.017Z,27.30
2022-11-25T03:34:17.951Z,27.20
2022-11-25T03:36:24.826Z,27.20
2022-11-25T03:38:32.520Z,27.10
2022-11-25T03:40:39.241Z,27.10
2022-11-25T03:42:48.726Z,27.10
2022-11-25T03:44:58.112Z,27.10
2022-11-25T03:47:05.598Z,27.20
2022-11-25T03:49:12.628Z,27.40
2022-11-25T03:51:19.705Z,27.60
2022-11-25T03:53:26.615Z,27.70
2022-11-25T03:55:34.019Z,27.90
2022-11-25T03:57:40.791Z,28.10
2022-11-25T03:59:47.971Z,28.20
2022-11-25T04:01:56.605Z,28.30
2022-11-25T04:04:03.820Z,28.40
2022-11-25T04:06:10.900Z,28.50
2022-11-25T04:08:19.566Z,28.60
2022-11-25T04:10:26.443Z,28.50
2022-11-25T04:12:48.680Z,28.50
2022-11-25T04:15:02.307Z,28.40
2022-11-25T04:17:12.018Z,28.30
2022-11-25T04:19:19.025Z,28.20
2022-11-25T04:21:26.104Z,28.10
2022-11-25T04:23:32.774Z,28.10
2022-11-25T04:25:43.541Z,28.10
2022-11-25T04:28:01.681Z,28.10
2022-11-25T04:30:13.365Z,28.10
2022-11-25T04:32:23.517Z,28.10
2022-11-25T04:34:30.904Z,28.30
2022-11-25T04:36:38.804Z,28.40
2022-11-25T04:38:46.086Z,28.40
2022-11-25T04:40:53.011Z,28.40
2022-11-25T04:43:07.474Z,28.40
2022-11-25T04:45:23.365Z,28.50
2022-11-25T04:47:34.934Z,28.60
2022-11-25T04:49:42.627Z,28.70
2022-11-25T04:51:49.810Z,29.00
2022-11-25T04:53:56.634Z,29.10
2022-11-25T04:56:04.685Z,29.20
2022-11-25T04:58:43.457Z,29.20
2022-11-25T05:00:49.308Z,29.30
2022-11-25T05:02:58.027Z,29.40
2022-11-25T05:05:05.719Z,29.50
2022-11-25T05:07:12.641Z,29.60
2022-11-25T05:09:20.542Z,29.70
2022-11-25T05:11:36.378Z,29.80
2022-11-25T05:13:43.763Z,29.80
2022-11-25T05:15:50.485Z,29.70
2022-11-25T05:18:01.405Z,29.70
2022-11-25T05:20:24.254Z,29.70
2022-11-25T05:22:33.739Z,29.60
2022-11-25T05:24:40.971Z,29.60
2022-11-25T05:26:48.362Z,29.60
2022-11-25T05:28:55.129Z,29.60
2022-11-25T05:31:02.672Z,29.60
2022-11-25T05:33:11.694Z,29.50
2022-11-25T05:35:20.001Z,29.50
2022-11-25T05:37:27.082Z,29.50
2022-11-25T05:39:40.971Z,29.60
2022-11-25T05:42:08.682Z,29.70
2022-11-25T05:44:22.710Z,29.80
2022-11-25T05:46:32.953Z,29.90
2022-11-25T05:48:41.493Z,30.10
2022-11-25T05:50:48.673Z,30.10
2022-11-25T05:53:02.105Z,30.10
2022-11-25T05:55:10.667Z,30.10
2022-11-25T05:57:17.491Z,30.10
2022-11-25T05:59:34.299Z,30.10
2022-11-25T06:01:57.960Z,30.10
2022-11-25T06:04:08.832Z,30.10
2022-11-25T06:06:15.707Z,30.10
2022-11-25T06:08:22.990Z,30.00
2022-11-25T06:10:29.816Z,29.90
2022-11-25T06:12:36.944Z,29.90
2022-11-25T06:14:43.770Z,29.80
2022-11-25T06:16:51.768Z,29.80
2022-11-25T06:19:08.114Z,29.90
2022-11-25T06:21:17.293Z,30.00
2022-11-25T06:23:24.219Z,30.10
2022-11-25T06:25:31.607Z,30.20
2022-11-25T06:28:04.412Z,30.30
2022-11-25T06:30:05.835Z,30.30
2022-11-25T06:32:12.765Z,30.30
2022-11-25T06:34:24.498Z,30.30
2022-11-25T06:36:31.218Z,30.30
2022-11-25T06:38:38.605Z,30.30
2022-11-25T06:40:45.480Z,30.40
2022-11-25T06:42:52.509Z,30.40
2022-11-25T06:44:59.384Z,30.40
2022-11-25T06:47:06.512Z,30.50
2022-11-25T06:49:13.591Z,30.50
2022-11-25T06:51:22.359Z,30.50
2022-11-25T06:53:29.697Z,30.60
2022-11-25T06:55:36.621Z,30.60
2022-11-25T06:57:43.547Z,30.60
2022-11-25T06:59:50.934Z,30.70
2022-11-25T07:01:57.784Z,30.80
2022-11-25T07:04:06.118Z,30.80
2022-11-25T07:06:14.328Z,30.70
2022-11-25T07:08:28.283Z,30.80
2022-11-25T07:10:38.414Z,30.80
2022-11-25T07:12:48.208Z,30.90
2022-11-25T07:14:55.182Z,30.90
2022-11-25T07:17:02.952Z,30.90
2022-11-25T07:19:13.334Z,30.90
2022-11-25T07:21:21.898Z,30.90
2022-11-25T07:23:31.026Z,30.90
2022-11-25T07:25:38.207Z,30.90
2022-11-25T07:27:44.877Z,30.90
2022-11-25T07:30:10.710Z,30.90
2022-11-25T07:32:19.463Z,31.00
2022-11-25T07:34:26.647Z,30.90
2022-11-25T07:36:34.033Z,30.90
2022-11-25T07:38:46.483Z,30.90
2022-11-25T07:40:53.771Z,31.00
2022-11-25T07:43:00.748Z,30.90
2022-11-25T07:45:08.340Z,30.90
2022-11-25T07:47:26.477Z,30.90
2022-11-25T07:49:33.147Z,30.90
2022-11-25T07:51:41.966Z,30.80
2022-11-25T07:53:51.658Z,30.70
2022-11-25T07:55:58.686Z,30.70
2022-11-25T07:58:06.740Z,30.70
2022-11-25T08:00:15.456Z,30.70
2022-11-25T08:02:22.247Z,30.70
2022-11-25T08:04:29.359Z,30.70
2022-11-25T08:06:36.180Z,30.60
2022-11-25T08:08:44.336Z,30.60
2022-11-25T08:10:52.902Z,30.50
2022-11-25T08:13:00.029Z,30.50
2022-11-25T08:15:07.110Z,30.50
2022-11-25T08:17:14.240Z,30.60
2022-11-25T08:19:23.121Z,30.50
2022-11-25T08:21:33.057Z,30.60
2022-11-25T08:23:41.010Z,30.60
2022-11-25T08:25:50.611Z,30.60
2022-11-25T08:27:59.312Z,30.60
2022-11-25T08:30:06.599Z,30.50
2022-11-25T08:32:13.318Z,30.50
2022-11-25T08:34:22.597Z,30.50
2022-11-25T08:36:34.286Z,30.50
2022-11-25T08:38:41.621Z,30.50
2022-11-25T08:40:49.058Z,30.50
2022-11-25T08:42:57.932Z,30.50
2022-11-25T08:45:04.803Z,30.50
2022-11-25T08:47:12.549Z,30.40
2022-11-25T08:49:20.805Z,30.40
2022-11-25T08:51:32.596Z,30.30
2022-11-25T08:53:40.442Z,30.30
2022-11-25T08:55:47.635Z,30.30
2022-11-25T08:57:54.600Z,30.20
2022-11-25T09:00:03.375Z,30.20
2022-11-25T09:02:10.968Z,30.20
2022-11-25T09:04:17.988Z,30.20
2022-11-25T09:06:25.890Z,30.10
2022-11-25T09:08:33.479Z,30.10
2022-11-25T09:10:40.864Z,30.00
2022-11-25T09:12:49.223Z,30.10
2022-11-25T09:14:56.149Z,30.10
2022-11-25T09:17:05.074Z,30.00
2022-11-25T09:19:11.844Z,30.00
2022-11-25T09:21:21.484Z,30.00
2022-11-25T09:23:28.923Z,29.90
2022-11-25T09:25:36.217Z,29.90
2022-11-25T09:27:43.079Z,29.90
2022-11-25T09:29:50.366Z,29.90
2022-11-25T09:31:57.314Z,29.90
2022-11-25T09:34:06.108Z,29.80
2022-11-25T09:36:15.184Z,29.80
2022-11-25T09:38:22.519Z,29.80
2022-11-25T09:40:38.098Z,29.80
2022-11-25T09:43:11.139Z,29.70
2022-11-25T09:45:40.282Z,29.70
2022-11-25T09:47:58.420Z,29.70
2022-11-25T09:50:18.660Z,29.70
2022-11-25T09:52:33.315Z,29.70
2022-11-25T09:54:43.109Z,29.60
2022-11-25T09:56:53.876Z,29.60
2022-11-25T09:59:06.482Z,29.50
2022-11-25T10:01:20.524Z,29.50
2022-11-25T10:03:43.134Z,29.50
2022-11-25T10:05:57.268Z,29.50
2022-11-25T10:08:09.820Z,29.40
2022-11-25T10:10:25.202Z,29.40
2022-11-25T10:12:37.187Z,29.40
2022-11-25T10:14:49.439Z,29.30
2022-11-25T10:17:04.549Z,29.30
2022-11-25T10:19:19.980Z,29.20
2022-11-25T10:21:29.466Z,29.20
2022-11-25T10:23:38.031Z,29.10
2022-11-25T10:25:49.413Z,29.00
2022-11-25T10:28:02.176Z,29.00
2022-11-25T10:30:21.284Z,28.90
2022-11-25T10:32:31.077Z,28.90
2022-11-25T10:34:43.081Z,28.80
2022-11-25T10:36:52.864Z,28.80
2022-11-25T10:39:03.680Z,28.60
2022-11-25T10:41:11.785Z,28.60
2022-11-25T10:43:19.395Z,28.60
2022-11-25T10:45:35.260Z,28.50
2022-11-25T10:48:01.234Z,28.50
2022-11-25T10:50:23.211Z,28.40
2022-11-25T10:52:36.281Z,28.40
2022-11-25T10:54:43.502Z,28.30
2022-11-25T10:56:54.894Z,28.30
2022-11-25T10:59:15.799Z,28.30
2022-11-25T11:01:26.529Z,28.30
2022-11-25T11:03:33.641Z,28.20
2022-11-25T11:05:48.454Z,28.20
2022-11-25T11:08:18.981Z,28.20
2022-11-25T11:10:27.751Z,28.20
2022-11-25T11:12:34.523Z,28.20
2022-11-25T11:14:41.346Z,28.10
2022-11-25T11:16:55.899Z,28.10
2022-11-25T11:19:02.979Z,28.10
2022-11-25T11:21:23.985Z,28.00
2022-11-25T11:23:32.804Z,28.00
2022-11-25T11:25:41.728Z,27.90
2022-11-25T11:27:48.551Z,27.90
2022-11-25T11:30:17.286Z,27.90
2022-11-25T11:32:27.541Z,27.80
2022-11-25T11:34:53.615Z,27.80
2022-11-25T11:37:17.900Z,27.80
2022-11-25T11:39:49.246Z,27.70
2022-11-25T11:42:04.210Z,27.70
2022-11-25T11:44:18.714Z,27.70
2022-11-25T11:46:36.589Z,27.70
2022-11-25T11:48:53.124Z,27.70
2022-11-25T11:51:10.159Z,27.80
2022-11-25T11:53:25.302Z,27.80
2022-11-25T11:56:33.003Z,27.80
2022-11-25T11:58:41.952Z,27.80
2022-11-25T12:00:55.024Z,27.80
2022-11-25T12:03:09.062Z,27.80
2022-11-25T12:05:23.055Z,27.80
2022-11-25T12:07:37.153Z,27.80
2022-11-25T12:09:52.982Z,27.70
2022-11-25T12:12:07.285Z,27.60
2022-11-25T12:14:30.641Z,27.60
2022-11-25T12:16:43.138Z,27.60
2022-11-25T12:18:56.018Z,27.60
2022-11-25T12:21:06.576Z,27.50
2022-11-25T12:23:19.848Z,27.50
2022-11-25T12:25:31.535Z,27.50
2022-11-25T12:27:43.734Z,27.50
2022-11-25T12:29:55.064Z,27.50
2022-11-25T12:32:11.054Z,27.40
2022-11-25T12:34:24.265Z,27.40
2022-11-25T12:36:37.139Z,27.40
2022-11-25T12:38:53.947Z,27.40
2022-11-25T12:41:08.862Z,27.30
2022-11-25T12:43:33.824Z,27.30
2022-11-25T12:45:40.952Z,27.30
2022-11-25T12:47:48.478Z,27.30
2022-11-25T12:49:58.170Z,27.30
2022-11-25T12:52:23.527Z,27.30
2022-11-25T12:54:53.697Z,27.30
2022-11-25T12:57:24.483Z,27.30
2022-11-25T13:00:11.305Z,27.20
2022-11-25T13:02:45.416Z,27.20
2022-11-25T13:05:32.891Z,27.20
2022-11-25T13:07:44.216Z,27.30
2022-11-25T13:10:16.686Z,27.30
2022-11-25T13:12:35.194Z,27.30
2022-11-25T13:15:03.732Z,27.30
2022-11-25T13:17:15.458Z,27.30
2022-11-25T13:19:23.094Z,27.30
2022-11-25T13:21:30.740Z,27.30
2022-11-25T13:23:57.178Z,27.20
2022-11-25T13:26:48.898Z,27.20
2022-11-25T13:28:55.721Z,27.20
2022-11-25T13:31:23.108Z,27.10
2022-11-25T13:34:10.302Z,27.20
2022-11-25T13:36:22.084Z,27.10
2022-11-25T13:39:02.557Z,27.20
2022-11-25T13:41:26.471Z,27.20
2022-11-25T13:43:33.550Z,27.20
2022-11-25T13:45:45.706Z,27.20
2022-11-25T13:47:53.698Z,27.20
2022-11-25T13:50:03.798Z,27.30
2022-11-25T13:52:33.203Z,27.20
2022-11-25T13:54:51.083Z,27.20
2022-11-25T13:57:20.027Z,27.20
2022-11-25T13:59:40.928Z,27.20
2022-11-25T14:01:57.483Z,27.20
2022-11-25T14:04:10.396Z,27.20
2022-11-25T14:06:31.507Z,27.20
2022-11-25T14:08:44.522Z,27.20
2022-11-25T14:11:03.073Z,27.20
2022-11-25T14:13:34.111Z,27.20
2022-11-25T14:16:07.373Z,27.20
2022-11-25T14:19:12.105Z,27.20
2022-11-25T14:21:10.000Z,27.20
2022-11-25T14:24:04.186Z,27.10
2022-11-25T14:26:34.024Z,27.10
2022-11-25T14:28:50.342Z,27.00
2022-11-25T14:31:01.879Z,27.00
2022-11-25T14:33:14.535Z,27.00
2022-11-25T14:35:25.303Z,27.00
2022-11-25T14:37:42.472Z,27.00
2022-11-25T14:39:57.329Z,27.00
2022-11-25T14:42:08.965Z,27.00
2022-11-25T14:44:26.643Z,26.90
2022-11-25T14:46:33.451Z,26.80
2022-11-25T14:48:41.160Z,26.80
2022-11-25T14:51:02.164Z,26.80
2022-11-25T14:53:15.581Z,26.80
2022-11-25T14:55:31.632Z,26.80
2022-11-25T14:57:42.477Z,26.90
2022-11-25T14:59:49.428Z,26.90
2022-11-25T15:01:58.137Z,26.90
2022-11-25T15:04:07.482Z,26.90
2022-11-25T15:06:17.525Z,26.80
2022-11-25T15:08:26.853Z,26.80
2022-11-25T15:10:41.444Z,26.70
2022-11-25T15:12:53.557Z,26.70
2022-11-25T15:15:01.149Z,26.70
2022-11-25T15:17:11.918Z,26.70
2022-11-25T15:19:21.811Z,26.70
2022-11-25T15:21:32.732Z,26.80
2022-11-25T15:23:43.445Z,26.70
2022-11-25T15:25:54.865Z,26.70
2022-11-25T15:28:01.955Z,26.70
2022-11-25T15:30:22.656Z,26.70
2022-11-25T15:32:32.240Z,26.80
2022-11-25T15:34:39.218Z,26.70
2022-11-25T15:36:52.668Z,26.80
2022-11-25T15:39:18.058Z,26.80
2022-11-25T15:41:36.347Z,26.80
2022-11-25T15:43:48.035Z,26.80
2022-11-25T15:45:55.096Z,26.80
2022-11-25T15:48:02.195Z,26.80
2022-11-25T15:50:20.904Z,26.80
2022-11-25T15:52:28.847Z,26.80
2022-11-25T15:54:43.896Z,26.80
2022-11-25T15:56:53.154Z,26.80
2022-11-25T15:59:01.929Z,26.80
2022-11-25T16:01:10.356Z,26.80
2022-11-25T16:03:24.876Z,26.80
2022-11-25T16:05:37.741Z,26.80
2022-11-25T16:08:00.896Z,26.80
2022-11-25T16:10:21.631Z,26.80
2022-11-25T16:12:28.775Z,26.80
2022-11-25T16:14:39.644Z,26.80
2022-11-25T16:16:47.818Z,26.80
2022-11-25T16:19:20.837Z,26.70
2022-11-25T16:21:31.501Z,26.70
2022-11-25T16:23:40.062Z,26.70
2022-11-25T16:25:54.567Z,26.70
2022-11-25T16:28:01.909Z,26.70
2022-11-25T16:30:21.225Z,26.60
2022-11-25T16:32:29.633Z,26.60
2022-11-25T16:34:36.891Z,26.60
2022-11-25T16:36:43.737Z,26.60
2022-11-25T16:38:56.704Z,26.60
2022-11-25T16:41:14.331Z,26.60
2022-11-25T16:43:25.612Z,26.60
2022-11-25T16:45:32.759Z,26.60
2022-11-25T16:47:39.869Z,26.50
2022-11-25T16:49:47.514Z,26.50
2022-11-25T16:51:55.359Z,26.40
2022-11-25T16:54:02.180Z,26.50
2022-11-25T16:56:15.915Z,26.40
2022-11-25T16:58:25.087Z,26.40
2022-11-25T17:00:32.329Z,26.50
2022-11-25T17:02:39.791Z,26.50
2022-11-25T17:04:47.202Z,26.50
2022-11-25T17:07:24.383Z,26.50
2022-11-25T17:09:21.126Z,26.50
2022-11-25T17:11:32.299Z,26.60
2022-11-25T17:13:43.116Z,26.50
2022-11-25T17:15:50.847Z,26.60
2022-11-25T17:17:57.995Z,26.60
2022-11-25T17:20:04.662Z,26.60
2022-11-25T17:22:20.649Z,26.50
2022-11-25T17:24:28.342Z,26.60
2022-11-25T17:26:41.055Z,26.60
2022-11-25T17:28:54.225Z,26.60
2022-11-25T17:31:02.125Z,26.50
2022-11-25T17:33:14.375Z,26.40
2022-11-25T17:35:23.093Z,26.40
2022-11-25T17:37:32.016Z,26.40
2022-11-25T17:39:39.638Z,26.30
2022-11-25T17:41:50.731Z,26.30
2022-11-25T17:43:58.275Z,26.30
2022-11-25T17:46:05.177Z,26.40
2022-11-25T17:48:14.374Z,26.30
2022-11-25T17:50:24.167Z,26.30
2022-11-25T17:52:31.196Z,26.40
2022-11-25T17:54:38.384Z,26.40
2022-11-25T17:56:52.358Z,26.40
2022-11-25T17:59:03.595Z,26.40
2022-11-25T18:01:12.909Z,26.40
2022-11-25T18:03:20.826Z,26.30
2022-11-25T18:05:29.032Z,26.30
2022-11-25T18:07:36.146Z,26.30
2022-11-25T18:09:42.935Z,26.20
2022-11-25T18:11:53.853Z,26.30
2022-11-25T18:14:00.778Z,26.20
2022-11-25T18:16:08.617Z,26.20
2022-11-25T18:18:22.139Z,26.20
2022-11-25T18:20:31.079Z,26.20
2022-11-25T18:22:37.995Z,26.20
2022-11-25T18:24:45.277Z,26.20
2022-11-25T18:26:55.748Z,26.20
2022-11-25T18:29:04.054Z,26.20
2022-11-25T18:31:10.984Z,26.20
2022-11-25T18:33:19.441Z,26.20
2022-11-25T18:35:34.126Z,26.20
2022-11-25T18:37:43.022Z,26.20
2022-11-25T18:39:49.849Z,26.20
2022-11-25T18:42:00.971Z,26.20
2022-11-25T18:44:10.662Z,26.20
2022-11-25T18:46:18.389Z,26.20
2022-11-25T18:48:26.404Z,26.20
2022-11-25T18:50:33.484Z,26.20
2022-11-25T18:52:40.311Z,26.20
2022-11-25T18:54:47.750Z,26.10
2022-11-25T18:56:55.285Z,26.10
2022-11-25T18:59:04.414Z,26.10
2022-11-25T19:01:18.144Z,26.00
2022-11-25T19:03:26.919Z,26.00
2022-11-25T19:05:36.401Z,26.10
2022-11-25T19:07:43.317Z,26.00
2022-11-25T19:09:50.407Z,26.00
2022-11-25T19:11:58.202Z,26.00
2022-11-25T19:14:11.580Z,26.10
2022-11-25T19:16:22.376Z,26.10
2022-11-25T19:18:30.498Z,26.00
2022-11-25T19:20:37.222Z,26.00
2022-11-25T19:22:44.351Z,26.00
2022-11-25T19:24:51.173Z,26.00
2022-11-25T19:27:00.301Z,25.90
2022-11-25T19:29:10.708Z,25.90
2022-11-25T19:31:17.848Z,25.90
2022-11-25T19:33:28.605Z,26.00
2022-11-25T19:35:39.166Z,25.90
2022-11-25T19:37:46.300Z,25.90
2022-11-25T19:39:54.604Z,25.90
2022-11-25T19:42:01.429Z,25.80
2022-11-25T19:44:10.403Z,25.80
2022-11-25T19:46:33.072Z,25.80
2022-11-25T19:48:44.067Z,25.80
2022-11-25T19:50:53.040Z,25.80
2022-11-25T19:53:00.069Z,25.80
2022-11-25T19:55:16.209Z,25.70
2022-11-25T19:57:25.440Z,25.70
2022-11-25T19:59:34.362Z,25.70
2022-11-25T20:01:45.590Z,25.70
2022-11-25T20:03:55.791Z,25.70
2022-11-25T20:06:03.127Z,25.70
2022-11-25T20:08:13.481Z,25.60
2022-11-25T20:10:23.222Z,25.60
2022-11-25T20:12:31.531Z,25.60
2022-11-25T20:14:40.232Z,25.60
2022-11-25T20:16:47.154Z,25.60
2022-11-25T20:18:55.985Z,25.60
2022-11-25T20:21:05.532Z,25.60
2022-11-25T20:23:18.294Z,25.50
2022-11-25T20:25:25.733Z,25.50
2022-11-25T20:27:32.664Z,25.40
2022-11-25T20:29:41.681Z,25.40
2022-11-25T20:31:48.871Z,25.30
2022-11-25T20:33:56.210Z,25.30
2022-11-25T20:36:06.300Z,25.30
2022-11-25T20:38:19.780Z,25.20
2022-11-25T20:40:31.003Z,25.20
2022-11-25T20:42:38.237Z,25.20
2022-11-25T20:44:47.211Z,25.10
2022-11-25T20:46:54.342Z,25.10
2022-11-25T20:49:02.862Z,25.10
2022-11-25T20:51:15.871Z,25.10
2022-11-25T20:53:24.317Z,25.10
2022-11-25T20:55:31.413Z,25.10
2022-11-25T20:57:38.442Z,25.10
2022-11-25T20:59:47.466Z,25.00
2022-11-25T21:01:55.645Z,25.00
2022-11-25T21:04:02.805Z,24.90
2022-11-25T21:06:21.249Z,24.90
2022-11-25T21:08:31.860Z,24.80
2022-11-25T21:10:38.632Z,24.80
2022-11-25T21:12:45.915Z,24.80
2022-11-25T21:14:54.429Z,24.80
2022-11-25T21:17:01.559Z,24.80
2022-11-25T21:19:08.485Z,24.80
2022-11-25T21:21:19.764Z,24.80
2022-11-25T21:23:28.225Z,24.90
2022-11-25T21:25:36.328Z,24.90
2022-11-25T21:27:43.304Z,24.80
2022-11-25T21:29:50.742Z,24.80
2022-11-25T21:31:59.389Z,24.80
2022-11-25T21:34:12.272Z,24.90
2022-11-25T21:36:22.888Z,24.80
2022-11-25T21:38:30.783Z,24.80
2022-11-25T21:40:42.675Z,24.80
2022-11-25T21:42:49.651Z,24.80
2022-11-25T21:44:56.682Z,24.80
2022-11-25T21:47:05.860Z,24.80
2022-11-25T21:49:14.730Z,24.80
2022-11-25T21:51:25.089Z,24.70
2022-11-25T21:53:36.018Z,24.70
2022-11-25T21:55:44.574Z,24.70
2022-11-25T21:57:51.291Z,24.70
2022-11-25T21:59:58.778Z,24.70
2022-11-25T22:02:19.685Z,24.70
2022-11-25T22:04:27.262Z,24.70
2022-11-25T22:06:34.509Z,24.60
2022-11-25T22:08:41.640Z,24.50
2022-11-25T22:10:51.328Z,24.50
2022-11-25T22:12:58.510Z,24.50
2022-11-25T22:15:06.356Z,24.50
2022-11-25T22:17:21.067Z,24.50
2022-11-25T22:19:30.499Z,24.50
2022-11-25T22:21:37.683Z,24.50
2022-11-25T22:23:45.118Z,24.50
2022-11-25T22:25:53.171Z,24.50
2022-11-25T22:28:00.148Z,24.50
2022-11-25T22:30:08.096Z,24.50
2022-11-25T22:32:17.687Z,24.50
2022-11-25T22:34:26.915Z,24.50
2022-11-25T22:36:36.282Z,24.50
2022-11-25T22:38:43.714Z,24.50
2022-11-25T22:40:52.811Z,24.40
2022-11-25T22:43:01.887Z,24.30
2022-11-25T22:45:11.273Z,24.20
2022-11-25T22:47:26.234Z,24.20
2022-11-25T22:49:37.718Z,24.20
2022-11-25T22:51:45.258Z,24.20
2022-11-25T22:53:51.979Z,24.20
2022-11-25T22:55:59.568Z,24.10
2022-11-25T22:58:06.341Z,24.10
2022-11-25T23:00:19.052Z,24.00
2022-11-25T23:02:35.700Z,24.00
2022-11-25T23:04:42.724Z,23.90
2022-11-25T23:06:50.375Z,23.90
2022-11-25T23:08:57.558Z,23.90
2022-11-25T23:11:04.539Z,23.90
2022-11-25T23:13:12.383Z,23.90
2022-11-25T23:15:20.281Z,23.90
2022-11-25T23:17:29.510Z,23.80
2022-11-25T23:19:36.384Z,23.80
2022-11-25T23:21:43.514Z,23.80
2022-11-25T23:23:50.645Z,23.80
2022-11-25T23:25:58.185Z,23.90
2022-11-25T23:28:04.906Z,24.00
2022-11-25T23:30:14.596Z,24.00
2022-11-25T23:32:22.859Z,24.00
2022-11-25T23:34:31.708Z,24.00
2022-11-25T23:36:44.938Z,24.00
2022-11-25T23:38:55.303Z,23.90
2022-11-25T23:41:02.082Z,23.90
2022-11-25T23:43:15.247Z,23.90
2022-11-25T23:45:25.070Z,23.90
2022-11-25T23:47:32.530Z,23.90
2022-11-25T23:49:45.191Z,23.90
2022-11-25T23:51:52.781Z,24.00
2022-11-25T23:54:00.423Z,24.00
2022-11-25T23:56:07.861Z,24.00
2022-11-25T23:58:18.576Z,24.00
